Terminal Aerodrome Forecast
Issued by NWS Sterling, VA

Current Version | Previous Version | Graphics & Text | Print | Product List | Glossary On
Versions: 1 2 3 4 5 6 7 8 9 10 11 12 13 14 15 16 17 18 19 20 21 22 23 24 25 26 27
000
FTUS41 KLWX 201012 AAB
TAFIAD
TAF AMD
KIAD 201012Z 2010/2112 33011G24KT P6SM FEW250
     FM202300 33007KT P6SM FEW040 SCT140
     FM210300 36004KT P6SM BKN110
     FM211000 VRB03KT P6SM -SHRA BKN050=

USA.gov is the U.S. government's official web portal to all federal, state and local government web resources and services.